Denton, Kentucky
Current Conditions -  °F | °C
As of 6:51 AM on Monday 24 Nov 2014 (Local Time) from KHTS Reporting Station
Clear Clear  
Wind Chill: 62°   Ceiling: Unl
Heat Index: 62°   Visibility: 10mi
Dew Point: 50°   Wind: 20mph
Humidity: 65%   Direction: 200°SSW
Pressure: 29.46"   Gusts: 29mph
Location:  38.26°N, 82.86°W
Report Text: KHTS 241151Z 20017G25KT 10SM CLR 17/10 A2946 RMK AO2 PK WND 20030/1127 SLP973 60000 70019 T01670100 10172 20156 55001
Loading
Personal Weather Stations






























Interactive Weather Map New forecast layout! Learn more

10-Day Weather Forecast

Advertisements
Track Severe Weather on mobile